Time;durP1;ratioP1;P1;durP2;ratioP2;P2;SDS_P1;SDS_P2;PMS_P1;PMS_P2;Temp;Humidity;BMP_temperature;BMP_pressure;BME280_temperature;BME280_humidity;BME280_pressure;Samples;Min_cycle;Max_cycle;Signal;HPM_P1;HPM_P2
2021/11/16 00:01:05;;;;;;;16.80;10.80;;;5.50;99.90;;;;;;5032931;28;20516;-76
2021/11/16 00:03:30;;;;;;;18.87;11.33;;;5.50;99.90;;;;;;5032726;28;20181;-76
2021/11/16 00:05:56;;;;;;;19.40;11.57;;;5.40;99.90;;;;;;5032621;28;20662;-76
2021/11/16 00:08:22;;;;;;;16.57;11.70;;;5.40;99.90;;;;;;5032217;28;20205;-76
2021/11/16 00:10:47;;;;;;;17.43;12.07;;;5.40;99.90;;;;;;5015301;28;20571;-76
2021/11/16 00:13:13;;;;;;;15.60;10.90;;;5.40;99.90;;;;;;5032385;28;20685;-75
2021/11/16 00:15:40;;;;;;;16.80;11.03;;;5.40;99.90;;;;;;5032506;28;20648;-76
2021/11/16 00:18:07;;;;;;;14.03;10.37;;;5.40;99.90;;;;;;5032346;28;20178;-76
2021/11/16 00:20:36;;;;;;;15.97;11.23;;;5.40;99.90;;;;;;5032452;28;20197;-76
2021/11/16 00:23:02;;;;;;;17.27;11.43;;;5.50;99.90;;;;;;5032433;28;20181;-76
2021/11/16 00:25:35;;;;;;;16.43;10.73;;;5.70;99.90;;;;;;5031801;28;20262;-76
2021/11/16 00:28:02;;;;;;;15.93;10.83;;;5.70;99.90;;;;;;5032431;28;20189;-75
2021/11/16 00:30:28;;;;;;;16.97;10.87;;;5.60;99.90;;;;;;5032185;28;20275;-76
2021/11/16 00:32:54;;;;;;;19.67;11.17;;;5.70;99.90;;;;;;5014550;28;20231;-76
2021/11/16 00:35:20;;;;;;;16.00;10.37;;;5.60;99.90;;;;;;5032306;28;20173;-76
2021/11/16 00:37:46;;;;;;;16.83;10.70;;;5.70;99.90;;;;;;5032262;28;20940;-76
2021/11/16 00:40:19;;;;;;;14.70;10.67;;;5.70;99.90;;;;;;5032266;28;20307;-76
2021/11/16 00:42:47;;;;;;;14.37;10.23;;;5.60;99.90;;;;;;5032256;28;20184;-76
2021/11/16 00:45:13;;;;;;;14.53;10.47;;;5.60;99.90;;;;;;5030741;28;20190;-76
2021/11/16 00:47:40;;;;;;;15.80;10.73;;;5.60;99.90;;;;;;5031135;28;20192;-76
2021/11/16 00:50:07;;;;;;;15.87;10.53;;;5.60;99.90;;;;;;5013441;28;20231;-77
2021/11/16 00:52:33;;;;;;;18.33;10.50;;;5.50;99.90;;;;;;5035493;28;20232;-75
2021/11/16 00:54:59;;;;;;;16.27;10.57;;;5.50;99.90;;;;;;5018492;28;20262;-76
2021/11/16 00:57:25;;;;;;;16.47;10.10;;;5.40;99.90;;;;;;5036154;28;20230;-73
2021/11/16 00:59:51;;;;;;;18.53;11.33;;;5.40;99.90;;;;;;5035522;28;20200;-75
2021/11/16 01:02:17;;;;;;;14.77;10.50;;;5.30;99.90;;;;;;5017533;28;20195;-75
2021/11/16 01:04:51;;;;;;;15.90;10.50;;;5.30;99.90;;;;;;5032922;28;20639;-76
2021/11/16 01:07:18;;;;;;;21.37;11.60;;;5.30;99.90;;;;;;5035501;28;20692;-75
2021/11/16 01:09:45;;;;;;;15.87;10.83;;;5.30;99.90;;;;;;5032808;28;20205;-74
2021/11/16 01:12:12;;;;;;;17.10;11.43;;;5.30;99.90;;;;;;5035360;28;20649;-75
2021/11/16 01:14:39;;;;;;;18.17;11.90;;;5.20;99.90;;;;;;5035322;28;20261;-76
2021/11/16 01:17:05;;;;;;;20.00;11.60;;;5.30;99.90;;;;;;5014337;28;20188;-75
2021/11/16 01:19:31;;;;;;;19.23;11.50;;;5.20;99.90;;;;;;5013171;28;20198;-76
2021/11/16 01:21:56;;;;;;;18.73;11.80;;;5.20;99.90;;;;;;5021477;28;20182;-76
2021/11/16 01:24:22;;;;;;;19.57;12.37;;;5.20;99.90;;;;;;5035375;28;20185;-76
2021/11/16 01:26:49;;;;;;;16.20;10.87;;;5.20;99.90;;;;;;5033389;28;20199;-75
2021/11/16 01:29:18;;;;;;;19.20;11.50;;;5.20;99.90;;;;;;5031832;28;20731;-76
2021/11/16 01:31:44;;;;;;;17.70;10.53;;;5.20;99.90;;;;;;5035405;28;20180;-76
2021/11/16 01:34:11;;;;;;;16.83;11.20;;;5.50;99.90;;;;;;5033945;28;20209;-75
2021/11/16 01:36:37;;;;;;;18.73;12.00;;;5.30;99.90;;;;;;5035710;28;20528;-76
2021/11/16 01:39:03;;;;;;;16.20;10.87;;;5.30;99.90;;;;;;5035397;28;20194;-75
2021/11/16 01:41:31;;;;;;;16.93;10.73;;;5.40;99.90;;;;;;5034047;28;20176;-76
2021/11/16 01:43:57;;;;;;;17.57;11.43;;;5.50;99.90;;;;;;5035260;28;20182;-76
2021/11/16 01:46:23;;;;;;;17.60;10.60;;;5.40;99.90;;;;;;5030668;28;20209;-76
2021/11/16 01:48:52;;;;;;;16.47;11.30;;;5.40;99.90;;;;;;5034351;28;20268;-76
2021/11/16 01:51:21;;;;;;;15.63;10.57;;;5.50;99.90;;;;;;5033914;28;20185;-75
2021/11/16 01:53:49;;;;;;;15.47;10.47;;;5.50;99.90;;;;;;5017288;28;20679;-76
2021/11/16 01:56:15;;;;;;;14.83;10.20;;;5.60;99.90;;;;;;5035017;28;20241;-76
2021/11/16 01:58:41;;;;;;;15.00;10.20;;;5.50;99.90;;;;;;5017068;28;20560;-76
2021/11/16 02:01:06;;;;;;;19.63;11.00;;;5.70;99.90;;;;;;5034952;28;20259;-75
2021/11/16 02:03:33;;;;;;;17.33;10.53;;;5.50;99.90;;;;;;5033935;28;20244;-76
2021/11/16 02:06:13;;;;;;;16.17;11.27;;;5.40;99.90;;;;;;5034945;28;20226;-76
2021/11/16 02:08:39;;;;;;;16.00;10.73;;;5.40;99.90;;;;;;5034755;28;20623;-77
2021/11/16 02:11:05;;;;;;;17.50;11.13;;;5.40;99.90;;;;;;5034852;28;20290;-76
2021/11/16 02:13:31;;;;;;;18.80;10.57;;;5.40;99.90;;;;;;5034735;28;20698;-76
2021/11/16 02:15:57;;;;;;;15.20;10.50;;;5.30;99.90;;;;;;5034223;28;20177;-76
2021/11/16 02:18:23;;;;;;;17.53;11.00;;;5.40;99.90;;;;;;5035075;28;20177;-76
2021/11/16 02:20:50;;;;;;;18.10;11.47;;;5.50;99.90;;;;;;5034613;28;20289;-76
2021/11/16 02:23:17;;;;;;;19.03;11.43;;;5.50;99.90;;;;;;5034772;28;20192;-75
2021/11/16 02:25:45;;;;;;;15.57;10.53;;;5.40;99.90;;;;;;5034473;28;20188;-76
2021/11/16 02:28:11;;;;;;;16.37;11.10;;;5.50;99.90;;;;;;5034523;28;20176;-75
2021/11/16 02:30:36;;;;;;;18.20;10.37;;;5.60;99.90;;;;;;5034344;28;20264;-75
2021/11/16 02:33:03;;;;;;;16.03;9.90;;;5.50;99.90;;;;;;5033427;28;20198;-76
2021/11/16 02:35:28;;;;;;;21.90;11.63;;;5.60;99.90;;;;;;5034327;28;20174;-76
2021/11/16 02:37:56;;;;;;;17.13;10.70;;;5.70;99.90;;;;;;5034326;28;20595;-76
2021/11/16 02:40:23;;;;;;;21.03;11.53;;;5.50;99.90;;;;;;5034488;28;20200;-75
2021/11/16 02:42:49;;;;;;;18.53;10.67;;;5.40;99.90;;;;;;5032981;28;20708;-77
2021/11/16 02:45:17;;;;;;;17.13;11.57;;;5.30;99.90;;;;;;5034292;28;20268;-76
2021/11/16 02:47:44;;;;;;;21.17;11.73;;;5.20;99.90;;;;;;5034310;28;20196;-76
2021/11/16 02:50:10;;;;;;;17.80;10.83;;;5.20;99.90;;;;;;5033895;28;20567;-76
2021/11/16 02:52:37;;;;;;;16.37;10.40;;;5.10;99.90;;;;;;5034060;28;20263;-75
2021/11/16 02:55:04;;;;;;;16.20;10.73;;;5.10;99.90;;;;;;5034017;28;20236;-76
2021/11/16 02:57:30;;;;;;;17.83;11.50;;;5.10;99.90;;;;;;5034150;28;20191;-76
2021/11/16 02:59:56;;;;;;;17.13;10.20;;;5.10;99.90;;;;;;5033850;28;20200;-74
2021/11/16 03:02:21;;;;;;;16.43;10.90;;;5.10;99.90;;;;;;5033950;28;20283;-76
2021/11/16 03:04:47;;;;;;;17.40;11.23;;;5.20;99.90;;;;;;5032516;28;20208;-76
2021/11/16 03:07:15;;;;;;;18.50;11.27;;;5.20;99.90;;;;;;5033698;28;20261;-76
2021/11/16 03:09:50;;;;;;;18.50;10.87;;;5.30;99.90;;;;;;5033656;28;20581;-76
2021/11/16 03:12:16;;;;;;;21.03;12.07;;;5.30;99.90;;;;;;5033558;28;20205;-75
2021/11/16 03:14:42;;;;;;;21.40;12.37;;;5.40;99.90;;;;;;5015615;28;20182;-76
2021/11/16 03:17:08;;;;;;;20.30;12.17;;;5.30;99.90;;;;;;5030569;28;20184;-75
2021/11/16 03:19:36;;;;;;;15.83;10.57;;;5.30;99.90;;;;;;5027283;28;20678;-76
2021/11/16 03:22:03;;;;;;;19.47;12.03;;;5.30;99.90;;;;;;5014062;28;20186;-76
2021/11/16 03:24:33;;;;;;;16.33;11.53;;;5.30;99.90;;;;;;5031472;28;20180;-76
2021/11/16 03:27:02;;;;;;;22.13;12.57;;;5.30;99.90;;;;;;5031355;28;20177;-76
2021/11/16 03:29:29;;;;;;;20.20;12.50;;;5.30;99.90;;;;;;5033372;28;20204;-76
2021/11/16 03:32:17;;;;;;;18.90;10.93;;;5.30;99.90;;;;;;5033311;28;20174;-76
2021/11/16 03:34:45;;;;;;;19.43;11.10;;;5.20;99.90;;;;;;5032797;28;20295;-76
2021/11/16 03:37:11;;;;;;;19.23;11.10;;;5.20;99.90;;;;;;5031920;28;20187;-75
2021/11/16 03:39:37;;;;;;;18.87;11.03;;;5.20;99.90;;;;;;5033063;28;20195;-76
2021/11/16 03:42:06;;;;;;;17.90;11.20;;;5.10;99.90;;;;;;5033026;28;20185;-76
2021/11/16 03:44:33;;;;;;;16.83;11.03;;;5.20;99.90;;;;;;5033032;28;20172;-76
2021/11/16 03:46:59;;;;;;;17.33;11.07;;;5.20;99.90;;;;;;5031484;28;20172;-76
2021/11/16 03:49:25;;;;;;;17.00;10.63;;;5.20;99.90;;;;;;5027089;28;20217;-76
2021/11/16 03:51:50;;;;;;;18.67;11.17;;;5.30;99.90;;;;;;5032506;28;20184;-76
2021/11/16 03:54:16;;;;;;;18.93;11.23;;;5.40;99.90;;;;;;5033080;28;20645;-77
2021/11/16 03:56:42;;;;;;;17.17;11.50;;;5.40;99.90;;;;;;5032840;28;20230;-76
2021/11/16 03:59:09;;;;;;;18.13;11.40;;;5.40;99.90;;;;;;5032838;28;20207;-76
2021/11/16 04:01:34;;;;;;;17.57;12.07;;;5.40;99.90;;;;;;5032829;28;20263;-75
2021/11/16 04:04:01;;;;;;;18.17;11.63;;;5.40;99.90;;;;;;5031523;28;20637;-76
2021/11/16 04:06:27;;;;;;;20.90;12.47;;;5.40;99.90;;;;;;5032757;28;20213;-76
2021/11/16 04:08:53;;;;;;;19.00;10.87;;;5.30;99.90;;;;;;5014847;28;20224;-76
2021/11/16 04:11:19;;;;;;;16.90;10.97;;;5.30;99.90;;;;;;5032636;28;20267;-75
2021/11/16 04:13:46;;;;;;;18.17;11.43;;;5.40;99.90;;;;;;5032404;28;20670;-76
2021/11/16 04:16:11;;;;;;;16.57;11.20;;;5.60;99.90;;;;;;5031276;28;20224;-76
2021/11/16 04:18:38;;;;;;;14.97;10.10;;;5.50;99.90;;;;;;5014588;28;20184;-76
2021/11/16 04:21:03;;;;;;;19.10;11.13;;;5.60;99.90;;;;;;5032479;28;20178;-76
2021/11/16 04:23:30;;;;;;;14.07;10.20;;;5.60;99.90;;;;;;5032342;28;20184;-76
2021/11/16 04:25:57;;;;;;;15.53;10.53;;;5.60;99.90;;;;;;5013531;28;20637;-76
2021/11/16 04:28:23;;;;;;;15.37;10.37;;;5.60;99.90;;;;;;5014674;28;20188;-76
2021/11/16 04:30:50;;;;;;;17.43;10.57;;;5.70;99.90;;;;;;5032203;28;20203;-76
2021/11/16 04:33:18;;;;;;;20.47;11.70;;;5.60;99.90;;;;;;5032451;28;20671;-76
2021/11/16 04:35:45;;;;;;;17.23;10.57;;;5.60;99.90;;;;;;5032337;28;20182;-76
2021/11/16 04:38:13;;;;;;;16.47;10.67;;;5.70;99.90;;;;;;5032204;28;20185;-76
2021/11/16 04:40:42;;;;;;;16.00;11.00;;;5.70;99.90;;;;;;5032224;28;20202;-76
2021/11/16 04:43:11;;;;;;;18.53;10.83;;;5.80;99.90;;;;;;5032164;28;20174;-76
2021/11/16 04:45:41;;;;;;;14.87;10.53;;;5.70;99.90;;;;;;5032249;28;20243;-76
2021/11/16 04:55:57;;;;;;;18.80;11.07;;;5.80;99.90;;;;;;5032158;28;20180;-76
2021/11/16 05:03:53;;;;;;;16.93;11.17;;;5.80;99.90;;;;;;5031962;28;20185;-75
2021/11/16 05:06:20;;;;;;;17.10;11.60;;;5.80;99.90;;;;;;5026415;28;20262;-72
2021/11/16 05:08:47;;;;;;;21.97;12.27;;;5.80;99.90;;;;;;5011926;28;20210;-74
2021/11/16 05:11:15;;;;;;;20.93;13.03;;;5.90;99.90;;;;;;5029859;28;20183;-75
2021/11/16 05:13:45;;;;;;;17.50;12.30;;;5.80;99.90;;;;;;5029980;28;20285;-75
2021/11/16 05:16:13;;;;;;;21.47;12.63;;;5.80;99.90;;;;;;5029900;28;20196;-75
2021/11/16 05:18:40;;;;;;;19.03;12.37;;;5.80;99.90;;;;;;5031344;28;20201;-75
2021/11/16 05:21:06;;;;;;;17.70;12.30;;;5.80;99.90;;;;;;5030815;28;20664;-75
2021/11/16 05:23:36;;;;;;;17.87;11.83;;;5.80;99.90;;;;;;5031192;28;20183;-75
2021/11/16 05:26:03;;;;;;;18.17;12.00;;;5.80;99.90;;;;;;5031624;28;20194;-75
2021/11/16 05:28:29;;;;;;;19.43;11.93;;;5.70;99.90;;;;;;5014252;28;20573;-75
2021/11/16 05:30:55;;;;;;;17.33;10.67;;;5.70;99.90;;;;;;5031788;28;20183;-76
2021/11/16 05:33:22;;;;;;;18.50;11.77;;;5.60;99.90;;;;;;5031739;28;20202;-74
2021/11/16 05:35:48;;;;;;;20.77;13.00;;;5.60;99.90;;;;;;5031696;28;20166;-76
2021/11/16 05:38:26;;;;;;;17.60;11.83;;;5.60;99.90;;;;;;5018154;28;20184;-74
2021/11/16 05:40:52;;;;;;;24.37;12.43;;;5.60;99.90;;;;;;5035475;28;20262;-75
2021/11/16 05:43:18;;;;;;;20.43;12.43;;;5.70;99.90;;;;;;5035248;28;20201;-75
2021/11/16 05:45:45;;;;;;;22.77;12.17;;;5.60;99.90;;;;;;5035304;28;20186;-76
2021/11/16 05:48:11;;;;;;;21.43;13.17;;;5.60;99.90;;;;;;5035121;28;20185;-74
2021/11/16 05:50:37;;;;;;;25.10;13.13;;;5.50;99.90;;;;;;5034983;28;20220;-75
2021/11/16 05:53:08;;;;;;;22.80;12.57;;;5.50;99.90;;;;;;5032860;28;20195;-74
2021/11/16 05:55:34;;;;;;;22.23;12.23;;;5.50;99.90;;;;;;5004748;28;20182;-74
2021/11/16 05:58:00;;;;;;;25.33;13.07;;;5.40;99.90;;;;;;5024892;28;20649;-75
2021/11/16 06:00:27;;;;;;;24.33;12.90;;;5.40;99.90;;;;;;5034781;28;20597;-74
2021/11/16 06:02:53;;;;;;;21.20;12.40;;;5.30;99.90;;;;;;5035028;28;20181;-75
2021/11/16 06:05:19;;;;;;;22.50;13.17;;;5.40;99.90;;;;;;5035025;28;20274;-76
2021/11/16 06:07:45;;;;;;;20.70;11.97;;;5.40;99.90;;;;;;5033634;28;20186;-76
2021/11/16 06:10:12;;;;;;;18.80;11.60;;;5.40;99.90;;;;;;5034732;28;20205;-75
2021/11/16 06:12:38;;;;;;;20.30;12.00;;;5.40;99.90;;;;;;5033443;28;20212;-75
2021/11/16 06:15:05;;;;;;;20.03;12.00;;;5.50;99.90;;;;;;5034898;28;20261;-75
2021/11/16 06:20:08;;;;;;;21.50;12.10;;;5.60;99.90;;;;;;5062500;22;20241;-84
2021/11/16 06:22:37;;;;;;;17.50;11.23;;;5.70;99.90;;;;;;5034056;28;20254;-82
2021/11/16 06:25:03;;;;;;;22.10;11.47;;;5.70;99.90;;;;;;5021209;28;20178;-84
2021/11/16 06:27:28;;;;;;;16.73;11.03;;;5.60;99.90;;;;;;5029280;28;20185;-82
2021/11/16 06:29:54;;;;;;;21.10;11.30;;;5.90;99.90;;;;;;5036072;28;20205;-82
2021/11/16 06:32:20;;;;;;;15.57;10.90;;;5.70;99.90;;;;;;5043176;28;20190;-82
2021/11/16 06:34:45;;;;;;;15.47;11.30;;;5.70;99.90;;;;;;5049793;28;20169;-82
2021/11/16 06:37:11;;;;;;;16.67;10.53;;;5.70;99.90;;;;;;5043663;28;20554;-84
2021/11/16 06:39:37;;;;;;;14.33;10.73;;;5.80;99.90;;;;;;5025602;28;20209;-84
2021/11/16 06:42:03;;;;;;;14.57;10.50;;;5.80;99.90;;;;;;5048294;28;20187;-84
2021/11/16 06:44:29;;;;;;;17.63;10.93;;;5.70;99.90;;;;;;5045308;28;20197;-84
2021/11/16 06:46:56;;;;;;;14.43;10.60;;;5.70;99.90;;;;;;5042960;28;20606;-84
2021/11/16 06:49:23;;;;;;;13.50;10.17;;;6.10;99.90;;;;;;5024706;28;20772;-84
2021/11/16 06:51:51;;;;;;;16.93;10.80;;;6.20;99.90;;;;;;4998533;28;20193;-84
2021/11/16 06:54:22;;;;;;;15.93;10.90;;;5.70;99.90;;;;;;4998269;28;20215;-83
2021/11/16 06:56:49;;;;;;;17.57;10.60;;;5.70;99.90;;;;;;5029714;28;20214;-84
2021/11/16 06:59:24;;;;;;;15.43;10.90;;;5.60;99.90;;;;;;5020491;28;20292;-84
2021/11/16 07:01:51;;;;;;;18.93;11.13;;;5.60;99.90;;;;;;5033966;28;20277;-84
2021/11/16 07:04:17;;;;;;;18.83;10.43;;;5.60;99.90;;;;;;5013301;28;20235;-84
2021/11/16 07:06:46;;;;;;;15.23;10.93;;;5.70;99.90;;;;;;5025584;28;20190;-84
2021/11/16 07:09:16;;;;;;;15.40;10.73;;;5.70;99.90;;;;;;5025463;28;20233;-83
2021/11/16 07:11:46;;;;;;;14.40;10.63;;;5.70;99.90;;;;;;5038657;28;20187;-82
2021/11/16 07:14:15;;;;;;;15.83;10.93;;;5.60;99.90;;;;;;5043726;28;20212;-83
2021/11/16 07:16:57;;;;;;;15.10;10.73;;;5.70;99.90;;;;;;5039919;28;20210;-82
2021/11/16 07:19:43;;;;;;;16.53;10.50;;;5.70;99.90;;;;;;5017841;28;20355;-82
2021/11/16 07:22:15;;;;;;;16.83;10.43;;;5.70;99.90;;;;;;5002997;28;20187;-83
2021/11/16 07:24:51;;;;;;;14.83;10.63;;;5.80;99.90;;;;;;5029045;28;20182;-82
2021/11/16 07:27:20;;;;;;;13.60;9.87;;;5.70;99.90;;;;;;5019267;28;20213;-82
2021/11/16 07:29:52;;;;;;;12.80;9.77;;;5.70;99.90;;;;;;5014892;28;20200;-82
2021/11/16 07:32:34;;;;;;;11.67;9.73;;;5.80;99.90;;;;;;5015322;28;20195;-80
2021/11/16 07:35:07;;;;;;;13.57;9.80;;;5.80;99.90;;;;;;5016628;28;20275;-81
2021/11/16 07:37:39;;;;;;;12.90;9.60;;;5.80;99.90;;;;;;5012795;28;20181;-82
2021/11/16 07:40:08;;;;;;;13.50;10.77;;;5.80;99.90;;;;;;5013153;28;20227;-81
2021/11/16 07:42:55;;;;;;;14.83;11.10;;;5.80;99.90;;;;;;5032628;28;20207;-81
2021/11/16 07:45:44;;;;;;;12.23;10.03;;;5.80;99.90;;;;;;5025717;28;20177;-82
2021/11/16 07:48:14;;;;;;;14.87;10.10;;;5.80;99.90;;;;;;4996848;28;20243;-81
2021/11/16 07:50:49;;;;;;;12.10;9.83;;;5.80;99.90;;;;;;5017898;28;20179;-80
2021/11/16 07:53:20;;;;;;;13.57;9.53;;;5.80;99.90;;;;;;5028447;28;20260;-79
2021/11/16 07:56:22;;;;;;;13.00;9.93;;;5.80;99.90;;;;;;5047881;28;20176;-83
2021/11/16 07:58:55;;;;;;;11.60;8.90;;;5.90;99.90;;;;;;5049431;28;20618;-81
2021/11/16 08:01:41;;;;;;;11.53;9.37;;;5.90;99.90;;;;;;5032744;28;20207;-81
2021/11/16 08:04:23;;;;;;;10.60;9.13;;;5.90;99.90;;;;;;5033909;28;20438;-81
2021/11/16 08:09:30;;;;;;;10.57;9.10;;;5.90;99.90;;;;;;5030821;28;20208;-81
2021/11/16 08:12:08;;;;;;;13.13;9.87;;;5.90;99.90;;;;;;5031083;28;20169;-82
2021/11/16 08:14:35;;;;;;;14.47;9.67;;;5.90;99.90;;;;;;5031007;28;20173;-81
2021/11/16 08:17:06;;;;;;;10.57;8.77;;;5.90;99.90;;;;;;5029532;28;20172;-80
2021/11/16 08:19:35;;;;;;;11.27;9.23;;;5.90;99.90;;;;;;5008804;28;20205;-81
2021/11/16 08:22:14;;;;;;;11.07;9.43;;;6.00;99.90;;;;;;4993701;28;20166;-82
2021/11/16 08:24:46;;;;;;;10.10;9.10;;;5.90;99.90;;;;;;5031134;28;20156;-82
2021/11/16 08:27:19;;;;;;;10.97;9.07;;;6.00;99.90;;;;;;5049959;28;20167;-81
2021/11/16 08:29:52;;;;;;;12.97;8.83;;;6.00;99.90;;;;;;5034677;28;20207;-81
2021/11/16 08:32:24;;;;;;;11.43;10.00;;;6.00;99.90;;;;;;5025026;28;20167;-82
2021/11/16 08:34:54;;;;;;;7.93;7.20;;;6.00;99.90;;;;;;5031570;28;20213;-81
2021/11/16 08:37:22;;;;;;;9.27;8.37;;;5.90;99.90;;;;;;5023874;28;20190;-83
2021/11/16 08:39:56;;;;;;;11.77;9.07;;;5.90;99.90;;;;;;5017961;28;20261;-80
2021/11/16 08:42:32;;;;;;;12.60;9.30;;;5.20;99.90;;;;;;5048742;28;20182;-81
2021/11/16 08:45:12;;;;;;;10.47;8.57;;;5.90;99.90;;;;;;5051720;28;20187;-81
2021/11/16 08:47:49;;;;;;;11.93;9.27;;;5.90;99.90;;;;;;5034583;28;20208;-82
2021/11/16 08:50:32;;;;;;;12.00;9.30;;;5.90;99.90;;;;;;5044779;28;20179;-80
2021/11/16 08:53:01;;;;;;;11.60;9.37;;;5.90;99.90;;;;;;5012805;28;20235;-83
2021/11/16 08:55:30;;;;;;;10.13;8.73;;;5.90;99.90;;;;;;5031583;28;20180;-82
2021/11/16 08:57:58;;;;;;;11.00;8.70;;;6.00;99.90;;;;;;5012428;28;20240;-83
2021/11/16 09:00:51;;;;;;;9.97;8.77;;;6.00;99.90;;;;;;5029367;28;20178;-81
2021/11/16 09:03:25;;;;;;;11.13;8.67;;;6.10;99.90;;;;;;5023097;28;20217;-83
2021/11/16 09:05:52;;;;;;;11.77;8.20;;;6.10;99.90;;;;;;5025794;28;20209;-83
2021/11/16 09:08:26;;;;;;;9.80;8.80;;;6.10;99.90;;;;;;5028873;28;20664;-79
2021/11/16 09:10:57;;;;;;;10.83;9.07;;;6.10;99.90;;;;;;5012851;28;20180;-83
2021/11/16 09:13:24;;;;;;;9.80;8.30;;;6.10;99.90;;;;;;5034488;28;20189;-83
2021/11/16 09:15:56;;;;;;;12.00;8.53;;;6.10;99.90;;;;;;5035067;28;20215;-83
2021/11/16 09:18:36;;;;;;;12.37;9.00;;;6.10;99.90;;;;;;5023053;28;20233;-83
2021/11/16 09:21:04;;;;;;;11.40;9.10;;;6.10;99.90;;;;;;5034114;28;22668;-83
2021/11/16 09:23:33;;;;;;;10.70;9.57;;;6.10;99.90;;;;;;5028601;28;20647;-82
2021/11/16 09:26:24;;;;;;;10.80;9.23;;;6.10;99.90;;;;;;5019283;28;20180;-82
2021/11/16 09:28:57;;;;;;;11.77;9.77;;;6.20;99.90;;;;;;5038738;28;20221;-81
2021/11/16 09:31:28;;;;;;;9.90;7.30;;;6.20;99.90;;;;;;5048402;28;20180;-84
2021/11/16 09:33:56;;;;;;;11.23;8.57;;;6.20;99.90;;;;;;5036659;28;20198;-82
2021/11/16 09:36:50;;;;;;;11.77;8.77;;;6.20;99.90;;;;;;5054722;28;20172;-81
2021/11/16 09:39:23;;;;;;;12.03;9.37;;;6.10;99.90;;;;;;5014967;28;20211;-81
2021/11/16 09:41:55;;;;;;;13.60;10.07;;;6.10;99.90;;;;;;5050350;28;20181;-83
2021/11/16 09:44:28;;;;;;;12.10;10.47;;;6.10;99.90;;;;;;5032052;28;20220;-82
2021/11/16 09:46:56;;;;;;;10.97;9.40;;;6.10;99.90;;;;;;5034285;28;20235;-82
2021/11/16 09:49:32;;;;;;;9.90;8.37;;;6.30;99.90;;;;;;5033881;28;20187;-82
2021/11/16 09:52:02;;;;;;;10.87;8.30;;;6.20;99.90;;;;;;5035815;28;20195;-82
2021/11/16 09:54:28;;;;;;;12.37;8.03;;;7.30;99.90;;;;;;5033526;28;20200;-81
2021/11/16 09:57:13;;;;;;;8.10;7.10;;;6.20;99.90;;;;;;5029488;28;20159;-82
2021/11/16 09:59:44;;;;;;;8.13;7.17;;;6.20;99.90;;;;;;5031734;28;20262;-82
2021/11/16 10:02:37;;;;;;;7.77;6.77;;;6.30;99.90;;;;;;5032729;28;20176;-82
2021/11/16 10:05:08;;;;;;;7.40;6.60;;;6.50;99.90;;;;;;5011317;28;20207;-82
2021/11/16 10:07:34;;;;;;;8.77;7.20;;;6.30;99.90;;;;;;5032699;28;20240;-82
2021/11/16 10:10:01;;;;;;;9.80;6.70;;;6.30;99.90;;;;;;5032727;28;20202;-82
2021/11/16 10:12:42;;;;;;;8.20;6.50;;;6.20;99.90;;;;;;5033004;28;20201;-83
2021/11/16 10:15:10;;;;;;;7.57;6.77;;;6.30;99.90;;;;;;5015074;28;20202;-82
2021/11/16 10:17:35;;;;;;;7.37;6.57;;;6.30;99.90;;;;;;5034950;28;20198;-82
2021/11/16 10:20:02;;;;;;;7.60;6.80;;;6.30;99.90;;;;;;5034378;28;20220;-84
2021/11/16 10:22:29;;;;;;;7.17;5.90;;;6.30;99.90;;;;;;5017470;28;20185;-82
2021/11/16 10:25:29;;;;;;;9.47;7.27;;;6.30;99.90;;;;;;5018502;28;20180;-83
2021/11/16 10:27:58;;;;;;;8.20;7.13;;;6.30;99.90;;;;;;5008021;28;20177;-81
2021/11/16 10:30:28;;;;;;;7.63;6.83;;;6.20;99.90;;;;;;5016810;28;20183;-81
2021/11/16 10:33:18;;;;;;;8.10;7.10;;;6.20;99.90;;;;;;5016734;28;20198;-84
2021/11/16 10:35:53;;;;;;;6.90;6.17;;;6.30;99.90;;;;;;5029207;28;20184;-82
2021/11/16 10:38:23;;;;;;;7.40;6.57;;;6.30;99.90;;;;;;5035480;28;20204;-81
2021/11/16 10:40:49;;;;;;;7.33;6.20;;;6.30;99.90;;;;;;5031577;28;20181;-83
2021/11/16 10:43:19;;;;;;;7.90;6.47;;;6.40;99.90;;;;;;5019347;28;20246;-80
2021/11/16 10:45:49;;;;;;;6.33;5.73;;;6.40;99.90;;;;;;5013793;28;20259;-81
2021/11/16 10:48:18;;;;;;;7.60;6.13;;;6.50;99.90;;;;;;5034558;28;20207;-82
2021/11/16 10:50:47;;;;;;;6.33;5.63;;;6.40;99.90;;;;;;5028171;28;20193;-82
2021/11/16 10:53:15;;;;;;;7.83;6.17;;;5.60;99.90;;;;;;5018880;28;20262;-82
2021/11/16 10:55:43;;;;;;;8.10;6.00;;;6.40;99.90;;;;;;5015528;28;20255;-82
2021/11/16 10:58:10;;;;;;;7.50;6.80;;;6.50;99.90;;;;;;5029910;28;20296;-82
2021/11/16 11:00:45;;;;;;;8.20;6.87;;;6.50;99.90;;;;;;5015158;28;20557;-82
2021/11/16 11:03:18;;;;;;;6.80;6.10;;;6.50;99.90;;;;;;5021574;28;20214;-84
2021/11/16 11:05:56;;;;;;;6.97;6.27;;;6.50;99.90;;;;;;5017867;28;20782;-84
2021/11/16 11:08:30;;;;;;;6.80;5.60;;;6.50;99.90;;;;;;5023968;28;20610;-83
2021/11/16 11:10:55;;;;;;;7.13;5.97;;;6.50;99.90;;;;;;5034303;28;20209;-83
2021/11/16 11:13:25;;;;;;;6.60;5.80;;;6.50;99.90;;;;;;5023422;28;20206;-83
2021/11/16 11:15:51;;;;;;;7.43;6.03;;;6.50;99.90;;;;;;5015622;28;20183;-83
2021/11/16 11:18:28;;;;;;;8.47;6.53;;;7.00;99.90;;;;;;5014192;28;20575;-82
2021/11/16 11:20:55;;;;;;;7.73;6.00;;;6.40;99.90;;;;;;5053532;28;20183;-83
2021/11/16 11:23:36;;;;;;;8.07;5.70;;;6.40;99.90;;;;;;5053008;28;20249;-83
2021/11/16 11:29:14;;;;;;;6.10;5.33;;;6.50;99.90;;;;;;5021806;28;20209;-83
2021/11/16 11:31:41;;;;;;;5.57;4.70;;;6.50;99.90;;;;;;5022668;28;20209;-83
2021/11/16 11:34:13;;;;;;;4.87;4.37;;;6.50;99.90;;;;;;5025079;28;20215;-83
2021/11/16 11:36:40;;;;;;;5.43;4.40;;;6.50;99.90;;;;;;5011880;28;20173;-82
2021/11/16 11:39:22;;;;;;;6.37;4.83;;;6.60;99.90;;;;;;5004967;28;20204;-83
2021/11/16 11:41:54;;;;;;;5.17;4.33;;;6.60;99.90;;;;;;5018731;28;20189;-82
2021/11/16 11:44:21;;;;;;;4.93;4.43;;;6.10;99.90;;;;;;5029840;28;20178;-83
2021/11/16 11:47:00;;;;;;;6.73;4.70;;;6.60;99.90;;;;;;5032620;28;20309;-83
2021/11/16 11:49:28;;;;;;;6.03;4.37;;;6.60;99.90;;;;;;5028538;28;20211;-82
2021/11/16 11:51:57;;;;;;;4.67;4.27;;;6.60;99.90;;;;;;5030892;28;20181;-83
2021/11/16 11:54:23;;;;;;;8.83;5.07;;;6.70;99.90;;;;;;5040908;28;20258;-82
2021/11/16 11:56:50;;;;;;;10.03;5.47;;;6.70;99.90;;;;;;5032185;28;20163;-82
2021/11/16 11:59:18;;;;;;;7.33;5.33;;;6.70;99.90;;;;;;5021480;28;20207;-82
2021/11/16 12:01:44;;;;;;;10.77;6.00;;;6.60;99.90;;;;;;5027039;28;20183;-82
2021/11/16 12:04:13;;;;;;;8.93;5.83;;;6.70;99.90;;;;;;5036395;28;20190;-82
2021/11/16 12:06:45;;;;;;;7.77;5.90;;;6.70;99.90;;;;;;5014003;28;20261;-82
2021/11/16 12:09:10;;;;;;;11.87;6.33;;;6.60;99.90;;;;;;5007787;28;20208;-82
2021/11/16 12:11:39;;;;;;;6.90;5.93;;;6.60;99.90;;;;;;5016045;28;20188;-82
2021/11/16 12:14:13;;;;;;;13.07;6.77;;;6.70;99.90;;;;;;5023401;28;20185;-82
2021/11/16 12:16:55;;;;;;;13.03;6.40;;;7.00;99.90;;;;;;5021922;28;20217;-81
2021/11/16 12:19:21;;;;;;;6.97;5.70;;;6.60;99.90;;;;;;5045635;23;20232;-73
2021/11/16 12:21:49;;;;;;;6.23;5.60;;;6.60;99.90;;;;;;5042465;28;20643;-75
2021/11/16 12:24:30;;;;;;;10.87;6.33;;;6.60;99.90;;;;;;5050748;28;20196;-73
2021/11/16 12:27:02;;;;;;;8.33;6.60;;;6.60;99.90;;;;;;5052350;28;20656;-75
2021/11/16 12:29:31;;;;;;;7.13;5.83;;;6.50;99.90;;;;;;5046463;28;20198;-75
2021/11/16 12:32:21;;;;;;;8.80;6.40;;;6.50;99.90;;;;;;5042780;28;20631;-74
2021/11/16 12:34:51;;;;;;;7.50;6.70;;;6.50;99.90;;;;;;5044190;28;20182;-75
2021/11/16 12:37:30;;;;;;;9.83;7.87;;;6.60;99.90;;;;;;5047431;28;20181;-74
2021/11/16 12:40:03;;;;;;;9.10;7.43;;;6.60;99.90;;;;;;5043440;28;20204;-73
2021/11/16 12:42:29;;;;;;;11.93;7.87;;;6.60;99.90;;;;;;5043767;28;20199;-72
2021/11/16 12:44:58;;;;;;;13.33;8.13;;;6.70;99.90;;;;;;5049957;28;20180;-74
2021/11/16 12:47:26;;;;;;;16.40;7.63;;;6.60;99.90;;;;;;5045696;28;20183;-74
2021/11/16 12:49:54;;;;;;;10.73;7.77;;;6.70;99.90;;;;;;5050814;28;20223;-73
2021/11/16 12:52:22;;;;;;;8.10;7.17;;;6.60;99.90;;;;;;5043156;28;20177;-76
2021/11/16 12:54:48;;;;;;;8.67;7.00;;;6.60;99.90;;;;;;5050472;28;20272;-73
2021/11/16 12:57:27;;;;;;;8.43;6.70;;;6.70;99.90;;;;;;5046370;28;20263;-76
2021/11/16 12:59:54;;;;;;;7.17;5.73;;;6.80;99.90;;;;;;5064330;28;20281;-73
2021/11/16 13:02:45;;;;;;;6.53;5.30;;;6.70;99.90;;;;;;5040244;28;20613;-76
2021/11/16 13:05:11;;;;;;;8.23;6.00;;;6.70;99.90;;;;;;5051847;28;20180;-74
2021/11/16 13:07:39;;;;;;;6.37;5.77;;;6.60;99.90;;;;;;5048245;28;20185;-74
2021/11/16 13:10:17;;;;;;;8.33;5.83;;;6.60;99.90;;;;;;5045185;28;20205;-73
2021/11/16 13:12:55;;;;;;;8.93;6.27;;;6.60;99.90;;;;;;5039278;28;20201;-73
2021/11/16 13:15:31;;;;;;;8.43;6.17;;;6.70;99.90;;;;;;5037984;28;20177;-73
2021/11/16 13:18:07;;;;;;;7.87;6.00;;;6.60;99.90;;;;;;5052944;28;20174;-74